Time;durP1;ratioP1;P1;durP2;ratioP2;P2;SDS_P1;SDS_P2;PMS_P1;PMS_P2;Temp;Humidity;BMP_temperature;BMP_pressure;BME280_temperature;BME280_humidity;BME280_pressure;Samples;Min_cycle;Max_cycle;Signal;HPM_P1;HPM_P2
2023/10/31 00:04:56;;;;;;;1999.90;999.90;;;;;;;14.86;96.67;99402.41;10542247;28;20048;-66
2023/10/31 00:09:59;;;;;;;1999.90;999.90;;;;;;;14.66;97.13;99428.03;10522547;28;20489;-65
2023/10/31 00:15:01;;;;;;;1999.90;999.90;;;;;;;15.61;92.28;99432.84;10541287;28;20526;-65
2023/10/31 00:20:05;;;;;;;1999.90;999.90;;;;;;;15.15;93.61;99425.06;10522980;28;20074;-66
2023/10/31 00:25:07;;;;;;;1999.90;999.90;;;;;;;15.25;89.99;99432.91;10541257;28;20056;-65
2023/10/31 00:30:10;;;;;;;1999.90;999.90;;;;;;;14.74;93.52;99458.06;10540786;28;20052;-66
2023/10/31 00:35:12;;;;;;;1999.90;999.90;;;;;;;14.50;95.22;99465.50;10539505;22;20066;-66
2023/10/31 00:40:16;;;;;;;1999.90;999.90;;;;;;;13.77;93.04;99470.59;10351954;28;20395;-66
2023/10/31 00:45:18;;;;;;;1999.90;999.90;;;;;;;14.35;95.56;99498.56;10369572;28;20050;-65
2023/10/31 00:50:21;;;;;;;1999.90;999.90;;;;;;;14.87;89.54;99516.53;10369504;28;20056;-66
2023/10/31 00:55:23;;;;;;;1999.90;999.90;;;;;;;14.43;92.74;99514.47;10368752;28;20049;-66
2023/10/31 01:00:25;;;;;;;1999.90;999.90;;;;;;;14.88;89.28;99523.47;10351870;28;20057;-66
2023/10/31 01:05:28;;;;;;;1999.90;999.90;;;;;;;15.00;87.47;99527.53;10368347;28;20046;-66
2023/10/31 01:10:30;;;;;;;1999.90;999.90;;;;;;;15.03;88.54;99535.16;10368831;28;20557;-66
2023/10/31 01:15:32;;;;;;;1999.90;999.90;;;;;;;14.70;90.64;99544.47;10368807;28;20060;-66
2023/10/31 01:20:35;;;;;;;1999.90;999.90;;;;;;;14.52;92.39;99535.66;10368694;28;20053;-66
2023/10/31 01:25:37;;;;;;;1999.90;999.90;;;;;;;14.89;88.41;99548.00;10358493;28;20496;-66
2023/10/31 01:30:40;;;;;;;1999.90;999.90;;;;;;;15.03;89.55;99553.63;10375805;28;20133;-66
2023/10/31 01:35:42;;;;;;;1999.90;999.90;;;;;;;14.43;90.48;99558.41;10375407;28;20054;-65
2023/10/31 01:40:48;;;;;;;1999.90;999.90;;;;;;;14.97;88.00;99570.00;10375509;28;20052;-66
2023/10/31 01:45:50;;;;;;;1999.90;999.90;;;;;;;15.35;88.69;99577.88;10357249;28;20444;-66
2023/10/31 01:50:52;;;;;;;1999.90;999.90;;;;;;;15.35;88.67;99578.69;10375212;28;20056;-66
2023/10/31 01:55:56;;;;;;;1999.90;999.90;;;;;;;15.68;87.36;99580.81;10358032;28;20046;-66
2023/10/31 02:01:00;;;;;;;1999.90;999.90;;;;;;;14.74;90.31;99595.06;10356988;28;20076;-66
2023/10/31 02:06:03;;;;;;;1999.90;999.90;;;;;;;14.82;91.49;99600.44;10357368;28;20053;-66
2023/10/31 02:11:09;;;;;;;1999.90;999.90;;;;;;;15.38;87.99;99594.22;10357264;28;20061;-65
2023/10/31 02:16:12;;;;;;;1999.90;999.90;;;;;;;15.08;89.20;99592.72;10374596;28;20107;-66
2023/10/31 02:21:15;;;;;;;1999.90;999.90;;;;;;;15.15;88.59;99598.25;10373572;28;20103;-66
2023/10/31 02:26:17;;;;;;;1999.90;999.90;;;;;;;15.30;87.48;99601.19;10373328;28;20058;-66
2023/10/31 02:31:19;;;;;;;1999.90;999.90;;;;;;;15.28;87.20;99595.22;10373264;28;20478;-66
2023/10/31 02:36:23;;;;;;;1999.90;999.90;;;;;;;15.50;86.79;99589.56;10372365;28;20085;-66
2023/10/31 02:41:25;;;;;;;1999.90;999.90;;;;;;;15.65;83.33;99592.50;10355708;28;20557;-66
2023/10/31 02:46:27;;;;;;;1999.90;999.90;;;;;;;15.62;86.00;99595.44;10373344;28;20069;-66
2023/10/31 02:51:30;;;;;;;1999.90;999.90;;;;;;;15.64;86.61;99596.13;10373227;28;20046;-66
2023/10/31 02:56:32;;;;;;;1999.90;999.90;;;;;;;14.72;90.50;99597.84;10372471;28;20397;-66
2023/10/31 03:01:36;;;;;;;1999.90;999.90;;;;;;;15.60;86.39;99597.38;10372837;28;20060;-66
2023/10/31 03:06:39;;;;;;;1999.90;999.90;;;;;;;15.49;87.34;99598.44;10372308;28;20042;-66
2023/10/31 03:11:41;;;;;;;1999.90;999.90;;;;;;;14.95;89.15;99594.88;10372623;28;20053;-66
2023/10/31 03:16:43;;;;;;;1999.90;999.90;;;;;;;15.04;89.48;99593.97;10371794;28;20050;-66
2023/10/31 03:21:46;;;;;;;1999.90;999.90;;;;;;;15.06;91.11;99594.66;10372319;28;20050;-66
2023/10/31 03:26:48;;;;;;;1999.90;999.90;;;;;;;15.18;91.01;99598.78;10354817;28;20050;-65
2023/10/31 03:31:50;;;;;;;1999.90;999.90;;;;;;;14.63;92.53;99607.44;10371991;28;20054;-65
2023/10/31 03:36:53;;;;;;;1999.90;999.90;;;;;;;14.94;94.81;99622.19;10371625;28;20054;-66
2023/10/31 03:41:55;;;;;;;1999.90;999.90;;;;;;;15.42;88.85;99629.84;10371641;28;20050;-66
2023/10/31 03:46:58;;;;;;;1999.90;999.90;;;;;;;14.11;92.61;99633.28;10337145;28;20057;-66
2023/10/31 03:52:00;;;;;;;1999.90;999.90;;;;;;;15.47;87.01;99637.31;10371311;28;20060;-66
2023/10/31 03:57:02;;;;;;;1999.90;999.90;;;;;;;15.02;92.04;99646.00;10371020;28;20440;-66
2023/10/31 04:02:05;;;;;;;1999.90;999.90;;;;;;;14.75;93.18;99658.16;10371016;28;20050;-66
2023/10/31 04:07:07;;;;;;;1999.90;999.90;;;;;;;14.59;94.73;99664.03;10370816;28;20052;-66
2023/10/31 04:12:10;;;;;;;1999.90;999.90;;;;;;;15.14;91.83;99663.28;10370052;28;20480;-66
2023/10/31 04:17:12;;;;;;;1999.90;999.90;;;;;;;14.94;92.51;99664.34;10370543;28;20121;-66
2023/10/31 04:22:15;;;;;;;1999.90;999.90;;;;;;;14.01;96.68;99692.97;10353220;28;20099;-66
2023/10/31 04:27:17;;;;;;;1999.90;999.90;;;;;;;14.74;94.36;99685.47;10352725;28;20524;-66
2023/10/31 04:32:20;;;;;;;1999.90;999.90;;;;;;;14.85;95.32;99692.41;10352388;28;20056;-66
2023/10/31 04:37:22;;;;;;;1999.90;999.90;;;;;;;14.75;94.91;99700.31;10369801;28;20053;-66
2023/10/31 04:42:25;;;;;;;1999.90;999.90;;;;;;;15.14;90.83;99702.84;10369126;28;20049;-66
2023/10/31 04:47:27;;;;;;;1999.90;999.90;;;;;;;15.04;90.90;99702.88;10351614;28;20465;-66
2023/10/31 04:52:29;;;;;;;1999.90;999.90;;;;;;;14.82;91.00;99725.13;10369236;28;20087;-66
2023/10/31 04:57:32;;;;;;;1999.90;999.90;;;;;;;14.44;94.49;99720.69;10368003;28;20421;-66
2023/10/31 05:02:34;;;;;;;1999.90;999.90;;;;;;;14.93;91.90;99729.41;10369211;28;20125;-66
2023/10/31 05:07:36;;;;;;;1999.90;999.90;;;;;;;14.95;90.73;99739.81;10351651;28;20046;-65
2023/10/31 05:12:39;;;;;;;1999.90;999.90;;;;;;;14.77;91.84;99753.69;10351640;28;20068;-66
2023/10/31 05:17:41;;;;;;;1999.90;999.90;;;;;;;15.27;86.79;99760.53;10350823;28;20050;-66
2023/10/31 05:22:44;;;;;;;1999.90;999.90;;;;;;;14.50;94.15;99770.19;10368648;28;20053;-66
2023/10/31 05:27:48;;;;;;;1999.90;999.90;;;;;;;15.17;90.40;99765.81;10351123;28;20046;-66
2023/10/31 05:32:51;;;;;;;1999.90;999.90;;;;;;;15.56;86.10;99765.69;10367726;28;20409;-66
2023/10/31 05:37:53;;;;;;;1999.90;999.90;;;;;;;15.52;85.15;99766.16;10350552;28;20127;-66
2023/10/31 05:42:57;;;;;;;1999.90;999.90;;;;;;;15.14;86.81;99766.09;10368136;28;20046;-66
2023/10/31 05:47:59;;;;;;;1999.90;999.90;;;;;;;14.42;89.99;99767.41;10367944;28;20046;-66
2023/10/31 05:53:01;;;;;;;1999.90;999.90;;;;;;;15.26;85.75;99790.50;10367963;28;20049;-66
2023/10/31 05:58:04;;;;;;;1999.90;999.90;;;;;;;15.63;84.54;99796.78;10350604;28;20098;-65
2023/10/31 06:03:08;;;;;;;1999.90;999.90;;;;;;;15.44;84.56;99808.25;10367642;28;20049;-66
2023/10/31 06:08:11;;;;;;;1999.90;999.90;;;;;;;15.65;84.77;99803.59;10370373;28;20129;-66
2023/10/31 06:13:13;;;;;;;1999.90;999.90;;;;;;;15.39;86.56;99816.56;10373928;28;20490;-66
2023/10/31 06:18:16;;;;;;;1999.90;999.90;;;;;;;15.27;87.76;99821.19;10374371;28;20052;-66
2023/10/31 06:23:18;;;;;;;1999.90;999.90;;;;;;;14.90;89.89;99832.47;10374208;28;20128;-66
2023/10/31 06:28:20;;;;;;;1999.90;999.90;;;;;;;14.44;93.73;99836.56;10373933;28;20073;-66
2023/10/31 06:33:23;;;;;;;1999.90;999.90;;;;;;;14.61;90.19;99853.56;10373875;28;20050;-65
2023/10/31 06:38:25;;;;;;;1999.90;999.90;;;;;;;15.16;88.36;99845.91;10373019;28;20509;-66
2023/10/31 06:43:28;;;;;;;1999.90;999.90;;;;;;;15.11;88.23;99857.84;10373569;28;20132;-65
2023/10/31 06:48:34;;;;;;;1999.90;999.90;;;;;;;14.85;90.75;99847.88;10356670;28;20133;-65
2023/10/31 06:53:36;;;;;;;1999.90;999.90;;;;;;;15.17;90.80;99862.56;10339909;28;20049;-66
2023/10/31 06:58:38;;;;;;;1999.90;999.90;;;;;;;14.76;90.85;99875.88;10355686;28;20042;-65
2023/10/31 07:03:40;;;;;;;1999.90;999.90;;;;;;;14.48;92.51;99866.94;10354985;28;20049;-66
2023/10/31 07:08:43;;;;;;;1999.90;999.90;;;;;;;14.82;93.18;99859.50;10372703;28;20046;-65
2023/10/31 07:13:45;;;;;;;1999.90;999.90;;;;;;;14.52;95.11;99868.31;10372615;28;20056;-66
2023/10/31 07:18:48;;;;;;;1999.90;999.90;;;;;;;14.89;90.59;99862.41;10354534;28;20057;-66
2023/10/31 07:23:50;;;;;;;1999.90;999.90;;;;;;;15.71;86.98;99868.94;10372317;28;20045;-65
2023/10/31 07:28:53;;;;;;;1999.90;999.90;;;;;;;15.96;84.63;99856.13;10354717;28;20160;-66
2023/10/31 07:33:56;;;;;;;1999.90;999.90;;;;;;;15.46;86.81;99865.13;10371945;28;20064;-66
2023/10/31 07:38:58;;;;;;;1999.90;999.90;;;;;;;15.25;88.88;99873.22;10370998;28;20490;-65
2023/10/31 07:44:01;;;;;;;1999.90;999.90;;;;;;;14.89;88.79;99882.69;10371651;28;20090;-66
2023/10/31 07:49:03;;;;;;;1999.90;999.90;;;;;;;15.32;87.97;99886.69;10371420;28;20053;-66
2023/10/31 07:54:05;;;;;;;1999.90;999.90;;;;;;;15.09;86.61;99894.06;10337318;28;20479;-66
2023/10/31 07:59:08;;;;;;;1999.90;999.90;;;;;;;15.10;88.59;99901.00;10370484;28;20046;-66
2023/10/31 08:04:11;;;;;;;1999.90;999.90;;;;;;;14.19;95.36;99915.09;10354231;28;20053;-66
2023/10/31 08:09:13;;;;;;;1999.90;999.90;;;;;;;16.15;87.62;99905.34;10370234;28;20125;-66
2023/10/31 08:14:16;;;;;;;1999.90;999.90;;;;;;;17.20;80.53;99906.66;10353454;28;20132;-68
2023/10/31 08:19:18;;;;;;;1999.90;999.90;;;;;;;17.51;78.27;99914.16;10370566;28;20118;-68
2023/10/31 08:24:20;;;;;;;1999.90;999.90;;;;;;;18.06;74.71;99917.50;10369923;28;20506;-68
2023/10/31 08:29:23;;;;;;;1999.90;999.90;;;;;;;18.16;74.28;99928.81;10353159;28;20084;-67
2023/10/31 08:34:25;;;;;;;1999.90;999.90;;;;;;;18.06;71.68;99917.50;10369184;28;20057;-68
2023/10/31 08:39:27;;;;;;;1999.90;999.90;;;;;;;17.89;72.82;99937.78;10369265;28;20050;-68
2023/10/31 08:44:30;;;;;;;1999.90;999.90;;;;;;;18.30;75.00;99932.69;10369118;28;20056;-67
2023/10/31 08:49:32;;;;;;;1999.90;999.90;;;;;;;18.51;70.36;99938.41;10369516;28;20050;-68
2023/10/31 08:54:34;;;;;;;1999.90;999.90;;;;;;;17.97;71.19;99936.00;10352180;28;20049;-67
2023/10/31 08:59:37;;;;;;;1999.90;999.90;;;;;;;20.45;70.18;99939.69;10369331;28;20042;-67
2023/10/31 09:04:39;;;;;;;1999.90;999.90;;;;;;;19.45;72.12;99955.00;10368617;28;20076;-67
2023/10/31 09:09:41;;;;;;;1999.90;999.90;;;;;;;19.30;68.19;99957.47;10335776;28;20045;-68
2023/10/31 09:14:44;;;;;;;1999.90;999.90;;;;;;;19.51;70.04;99961.44;10368343;28;20092;-67
2023/10/31 09:19:46;;;;;;;1999.90;999.90;;;;;;;19.32;67.35;99973.22;10368769;28;20126;-66
2023/10/31 09:24:49;;;;;;;1999.90;999.90;;;;;;;21.01;65.21;99972.28;10368644;28;20088;-67
2023/10/31 09:29:51;;;;;;;1999.90;999.90;;;;;;;18.85;73.82;99982.59;10368445;28;20054;-66
2023/10/31 09:34:54;;;;;;;1999.90;999.90;;;;;;;20.24;63.98;99996.91;10351321;28;20054;-67
2023/10/31 09:39:57;;;;;;;1999.90;999.90;;;;;;;20.48;67.17;100000.50;10351124;28;20081;-66
2023/10/31 09:44:59;;;;;;;1999.90;999.90;;;;;;;19.59;68.65;100006.59;10373758;28;20050;-66
2023/10/31 09:50:02;;;;;;;1999.90;999.90;;;;;;;18.17;72.98;100021.38;10374521;28;20054;-68
2023/10/31 09:55:05;;;;;;;1999.90;999.90;;;;;;;19.23;72.12;100014.84;10375297;28;20058;-68
2023/10/31 10:00:08;;;;;;;1999.90;999.90;;;;;;;19.88;70.12;100026.53;10357694;28;20091;-68
2023/10/31 10:05:11;;;;;;;1999.90;999.90;;;;;;;18.60;69.27;100039.97;10357487;28;20077;-66
2023/10/31 10:10:14;;;;;;;1999.90;999.90;;;;;;;18.92;66.84;100044.59;10357871;28;20095;-66
2023/10/31 10:15:16;;;;;;;1999.90;999.90;;;;;;;19.30;70.85;100047.69;10374500;28;20053;-66
2023/10/31 10:20:19;;;;;;;1999.90;999.90;;;;;;;19.02;74.10;100072.84;10374350;28;20064;-67
2023/10/31 10:25:22;;;;;;;1999.90;999.90;;;;;;;19.09;68.67;100077.31;10356817;28;20068;-67
2023/10/31 10:30:25;;;;;;;1999.90;999.90;;;;;;;21.13;66.82;100072.03;10373895;28;20053;-66
2023/10/31 10:35:27;;;;;;;1999.90;999.90;;;;;;;20.96;65.48;100081.09;10373680;28;20068;-67
2023/10/31 10:40:30;;;;;;;1999.90;999.90;;;;;;;19.76;66.50;100076.47;10356312;28;20106;-67
2023/10/31 10:45:32;;;;;;;1999.90;999.90;;;;;;;20.85;63.53;100092.13;10373533;28;20065;-67
2023/10/31 10:50:35;;;;;;;1999.90;999.90;;;;;;;19.02;70.11;100089.56;10356383;28;20084;-66
2023/10/31 10:55:43;;;;;;;1999.90;999.90;;;;;;;19.14;69.80;100098.06;10354468;28;20516;-67
2023/10/31 11:00:46;;;;;;;1999.90;999.90;;;;;;;18.79;73.09;100107.84;10355802;28;20046;-67
2023/10/31 11:05:48;;;;;;;1999.90;999.90;;;;;;;19.05;72.68;100105.19;10354971;28;20104;-67
2023/10/31 11:10:51;;;;;;;1999.90;999.90;;;;;;;18.57;73.51;100110.03;10372671;28;20186;-66
2023/10/31 11:15:57;;;;;;;1999.90;999.90;;;;;;;17.69;74.85;100111.84;10355593;28;20053;-68
2023/10/31 11:20:59;;;;;;;1999.90;999.90;;;;;;;18.28;75.16;100113.00;10355092;28;20099;-68
2023/10/31 11:26:02;;;;;;;1999.90;999.90;;;;;;;20.74;68.19;100107.44;10372285;28;20053;-68
2023/10/31 11:31:07;;;;;;;1999.90;999.90;;;;;;;20.74;64.80;100118.06;10354654;28;20137;-68
2023/10/31 11:36:11;;;;;;;1999.90;999.90;;;;;;;19.33;69.69;100141.25;10370687;28;20058;-68
2023/10/31 11:41:13;;;;;;;1999.90;999.90;;;;;;;18.82;71.15;100138.53;10371842;28;20064;-67
2023/10/31 11:46:20;;;;;;;1999.90;999.90;;;;;;;18.83;70.90;100146.34;10371633;28;20050;-68
2023/10/31 11:51:23;;;;;;;1999.90;999.90;;;;;;;18.55;69.59;100151.78;10353654;28;20128;-68
2023/10/31 11:56:26;;;;;;;1999.90;999.90;;;;;;;19.01;70.51;100162.19;10337445;28;20088;-68
2023/10/31 12:01:29;;;;;;;1999.90;999.90;;;;;;;17.69;73.56;100157.66;10371173;28;20076;-68
2023/10/31 12:06:31;;;;;;;1999.90;999.90;;;;;;;18.86;70.02;100156.66;10353016;28;20439;-68
2023/10/31 12:11:45;;;;;;;1999.90;999.90;;;;;;;18.89;71.18;100156.31;10370206;28;20049;-68
2023/10/31 12:16:47;;;;;;;1999.90;999.90;;;;;;;18.51;69.95;100163.69;10353965;28;20133;-67
2023/10/31 12:21:50;;;;;;;1999.90;999.90;;;;;;;18.74;69.43;100169.31;10352606;28;20049;-67
2023/10/31 12:26:52;;;;;;;1999.90;999.90;;;;;;;18.08;70.79;100164.50;10353076;28;20061;-67
2023/10/31 12:31:57;;;;;;;1999.90;999.90;;;;;;;18.15;71.00;100176.97;10369574;28;20410;-68
2023/10/31 12:37:01;;;;;;;1999.90;999.90;;;;;;;17.81;71.38;100171.50;10369523;28;20061;-68
2023/10/31 12:42:03;;;;;;;1999.90;999.90;;;;;;;18.19;72.54;100169.59;10369934;28;20046;-67
2023/10/31 12:47:08;;;;;;;1999.90;999.90;;;;;;;17.83;74.16;100170.34;10352187;28;20102;-67
2023/10/31 12:52:11;;;;;;;1999.90;999.90;;;;;;;18.08;71.98;100172.47;10458485;23;20059;-63
2023/10/31 12:57:14;;;;;;;1999.90;999.90;;;;;;;18.01;72.20;100173.06;10540622;28;20460;-63
2023/10/31 13:02:19;;;;;;;1999.90;999.90;;;;;;;17.74;73.29;100176.56;10540568;28;20056;-63
2023/10/31 13:07:27;;;;;;;1999.90;999.90;;;;;;;18.51;70.86;100178.78;10523059;28;20047;-63
2023/10/31 13:12:31;;;;;;;1999.90;999.90;;;;;;;17.80;71.81;100183.94;10540350;28;20052;-63
2023/10/31 13:17:36;;;;;;;1999.90;999.90;;;;;;;17.77;73.70;100183.38;10521726;28;20055;-63
2023/10/31 13:22:39;;;;;;;1999.90;999.90;;;;;;;18.31;71.00;100178.13;10539479;28;20511;-63
2023/10/31 13:27:43;;;;;;;1999.90;999.90;;;;;;;18.00;72.17;100178.50;10522012;28;20066;-63
2023/10/31 13:32:45;;;;;;;1999.90;999.90;;;;;;;17.95;71.02;100178.94;10522459;28;20078;-63
2023/10/31 13:37:48;;;;;;;1999.90;999.90;;;;;;;18.03;71.24;100182.69;10521776;28;20443;-63
2023/10/31 13:42:50;;;;;;;1999.90;999.90;;;;;;;18.17;70.42;100188.28;10539675;28;20071;-63
2023/10/31 13:47:52;;;;;;;1999.90;999.90;;;;;;;17.53;72.95;100191.88;10504940;28;20131;-63
2023/10/31 13:52:56;;;;;;;1999.90;999.90;;;;;;;18.06;70.58;100191.16;10521087;28;20048;-63
2023/10/31 13:57:58;;;;;;;1999.90;999.90;;;;;;;18.62;68.69;100186.44;10539418;28;20048;-63
2023/10/31 14:03:01;;;;;;;1999.90;999.90;;;;;;;18.76;68.09;100190.34;10520733;28;20404;-63
2023/10/31 14:08:06;;;;;;;1999.90;999.90;;;;;;;18.75;68.73;100201.97;10539639;28;20054;-63
2023/10/31 14:13:08;;;;;;;1999.90;999.90;;;;;;;18.30;69.15;100198.47;10520888;28;20450;-63
2023/10/31 14:18:10;;;;;;;1999.90;999.90;;;;;;;18.54;68.89;100210.25;10538325;28;20066;-63
2023/10/31 14:23:13;;;;;;;1999.90;999.90;;;;;;;18.30;70.59;100213.53;10538904;28;20048;-63
2023/10/31 14:28:15;;;;;;;1999.90;999.90;;;;;;;18.34;69.24;100212.25;10538921;28;20052;-63
2023/10/31 14:33:18;;;;;;;1999.90;999.90;;;;;;;17.91;73.46;100211.19;10546295;28;20044;-63
2023/10/31 14:38:20;;;;;;;1999.90;999.90;;;;;;;17.85;70.21;100211.75;10545448;28;20051;-63
2023/10/31 14:43:23;;;;;;;1999.90;999.90;;;;;;;17.62;71.49;100236.00;10545869;28;20127;-63
2023/10/31 14:48:25;;;;;;;1999.90;999.90;;;;;;;18.23;68.39;100231.03;10545670;28;20126;-63
2023/10/31 14:53:27;;;;;;;1999.90;999.90;;;;;;;18.13;68.19;100233.75;10544875;28;20072;-64
2023/10/31 14:58:30;;;;;;;1999.90;999.90;;;;;;;18.19;68.83;100235.81;10527402;28;20040;-63
2023/10/31 15:03:32;;;;;;;1999.90;999.90;;;;;;;18.61;66.10;100239.63;10545117;28;20044;-63
2023/10/31 15:08:35;;;;;;;1999.90;999.90;;;;;;;18.52;67.26;100234.25;10526870;28;20101;-63
2023/10/31 15:13:37;;;;;;;1999.90;999.90;;;;;;;18.24;70.70;100238.84;10526736;28;20060;-63
2023/10/31 15:18:39;;;;;;;1999.90;999.90;;;;;;;17.24;72.93;100243.94;10544479;28;20044;-63
2023/10/31 15:23:43;;;;;;;1999.90;999.90;;;;;;;17.64;72.13;100244.63;10544197;28;20493;-63
2023/10/31 15:28:46;;;;;;;1999.90;999.90;;;;;;;17.81;72.66;100243.81;10543395;28;20407;-62
2023/10/31 15:33:48;;;;;;;1999.90;999.90;;;;;;;17.68;71.61;100253.94;10543261;28;20075;-62
2023/10/31 15:38:51;;;;;;;1999.90;999.90;;;;;;;17.41;71.59;100246.81;10525694;28;20044;-61
2023/10/31 15:43:54;;;;;;;1999.90;999.90;;;;;;;18.08;68.88;100255.41;10524737;28;20404;-62
2023/10/31 15:48:57;;;;;;;1999.90;999.90;;;;;;;17.51;72.41;100263.47;10543150;28;20051;-62
2023/10/31 15:54:00;;;;;;;1999.90;999.90;;;;;;;17.70;69.67;100265.22;10542242;28;20404;-62
2023/10/31 15:59:02;;;;;;;1999.90;999.90;;;;;;;17.34;73.61;100272.19;10524323;28;20554;-62
2023/10/31 16:04:05;;;;;;;1999.90;999.90;;;;;;;16.90;72.09;100278.03;10542620;28;20044;-62
2023/10/31 16:09:08;;;;;;;1999.90;999.90;;;;;;;16.90;76.16;100276.19;10542382;28;20050;-62
2023/10/31 16:14:10;;;;;;;1999.90;999.90;;;;;;;17.35;73.42;100281.78;10542180;28;20052;-62
2023/10/31 16:19:13;;;;;;;1999.90;999.90;;;;;;;16.91;75.74;100284.97;10524742;28;20040;-62
2023/10/31 16:24:15;;;;;;;1999.90;999.90;;;;;;;16.97;77.41;100294.16;10541872;28;20086;-61
2023/10/31 16:29:18;;;;;;;1999.90;999.90;;;;;;;17.26;74.94;100292.28;10541627;28;20048;-62
2023/10/31 16:34:20;;;;;;;1999.90;999.90;;;;;;;17.02;74.84;100300.69;10540811;28;20403;-62
2023/10/31 16:39:22;;;;;;;1999.90;999.90;;;;;;;17.63;73.42;100298.53;10523406;28;20044;-61
2023/10/31 16:44:25;;;;;;;1999.90;999.90;;;;;;;16.98;77.18;100299.31;10540497;28;20483;-62
2023/10/31 16:49:27;;;;;;;1999.90;999.90;;;;;;;17.12;76.57;100300.66;10540411;28;20051;-62
2023/10/31 16:54:30;;;;;;;1999.90;999.90;;;;;;;16.74;78.13;100302.34;10539290;28;20110;-62
2023/10/31 16:59:32;;;;;;;1999.90;999.90;;;;;;;16.69;76.44;100305.44;10540728;28;20044;-62
2023/10/31 17:04:36;;;;;;;1999.90;999.90;;;;;;;16.41;80.79;100306.22;10540047;28;20404;-62
2023/10/31 17:09:39;;;;;;;1999.90;999.90;;;;;;;16.89;77.52;100308.94;10540283;28;20044;-62
2023/10/31 17:14:41;;;;;;;1999.90;999.90;;;;;;;17.24;76.24;100319.84;10521673;28;20131;-62
2023/10/31 17:19:44;;;;;;;1999.90;999.90;;;;;;;16.82;75.39;100333.38;10540161;28;20123;-62
2023/10/31 17:24:46;;;;;;;1999.90;999.90;;;;;;;17.02;76.62;100339.50;10539392;28;20456;-62
2023/10/31 17:29:52;;;;;;;1999.90;999.90;;;;;;;16.99;76.07;100348.56;10539783;28;20400;-62
2023/10/31 17:34:55;;;;;;;1999.90;999.90;;;;;;;17.24;75.76;100351.59;10539797;28;20044;-62
2023/10/31 17:39:57;;;;;;;1999.90;999.90;;;;;;;16.47;78.72;100358.53;10521132;28;20123;-62
2023/10/31 17:45:00;;;;;;;1999.90;999.90;;;;;;;16.29;79.49;100350.41;10539737;28;20048;-62
2023/10/31 17:50:02;;;;;;;1999.90;999.90;;;;;;;16.61;81.25;100358.13;10521182;28;20048;-62
2023/10/31 17:55:05;;;;;;;1999.90;999.90;;;;;;;16.78;78.61;100359.25;10538808;28;20489;-62
2023/10/31 18:00:08;;;;;;;1999.90;999.90;;;;;;;17.02;78.53;100361.50;10539325;28;20071;-62
2023/10/31 18:05:10;;;;;;;1999.90;999.90;;;;;;;16.88;78.01;100365.41;10525649;28;20130;-62
2023/10/31 18:10:13;;;;;;;1999.90;999.90;;;;;;;16.92;77.67;100360.66;10547063;28;20044;-62
2023/10/31 18:15:16;;;;;;;1999.90;999.90;;;;;;;16.91;78.39;100372.22;10547000;28;20055;-62
2023/10/31 18:20:18;;;;;;;1999.90;999.90;;;;;;;17.48;75.36;100368.81;10546849;28;20117;-63
2023/10/31 18:25:21;;;;;;;1999.90;999.90;;;;;;;16.99;79.67;100371.53;10545909;28;20087;-62
2023/10/31 18:30:23;;;;;;;1999.90;999.90;;;;;;;16.97;78.00;100362.91;10545747;28;20075;-62
2023/10/31 18:35:28;;;;;;;1999.90;999.90;;;;;;;17.01;79.58;100359.84;10546258;28;20127;-61
2023/10/31 18:40:32;;;;;;;1999.90;999.90;;;;;;;17.14;78.78;100348.97;10545406;28;20044;-61
2023/10/31 18:45:34;;;;;;;1999.90;999.90;;;;;;;16.95;79.26;100356.94;10545216;28;20051;-62
2023/10/31 18:50:37;;;;;;;1999.90;999.90;;;;;;;16.58;80.21;100353.13;10544790;28;20404;-61
2023/10/31 18:55:39;;;;;;;1999.90;999.90;;;;;;;16.60;80.76;100353.00;10545438;28;20056;-62
2023/10/31 19:00:42;;;;;;;1999.90;999.90;;;;;;;16.44;81.78;100340.31;10545246;28;20044;-62
2023/10/31 19:05:44;;;;;;;1999.90;999.90;;;;;;;16.56;80.50;100343.66;10544401;28;20576;-62
2023/10/31 19:10:47;;;;;;;1999.90;999.90;;;;;;;16.38;81.25;100346.97;10544097;28;20479;-62
2023/10/31 19:15:50;;;;;;;1999.90;999.90;;;;;;;16.18;82.62;100332.91;10543159;28;20446;-61
2023/10/31 19:20:52;;;;;;;1999.90;999.90;;;;;;;16.32;83.02;100329.88;10525897;28;20082;-61
2023/10/31 19:25:54;;;;;;;1999.90;999.90;;;;;;;16.63;81.91;100326.28;10544224;28;20056;-61
2023/10/31 19:30:57;;;;;;;1999.90;999.90;;;;;;;16.44;84.11;100342.94;10543886;28;20048;-62
2023/10/31 19:35:59;;;;;;;1999.90;999.90;;;;;;;16.61;84.71;100338.78;10543737;28;20123;-61
2023/10/31 19:41:02;;;;;;;1999.90;999.90;;;;;;;16.84;81.65;100344.63;10525634;28;20127;-61
2023/10/31 19:46:05;;;;;;;1999.90;999.90;;;;;;;16.71;82.15;100342.28;10543400;28;20130;-62
2023/10/31 19:51:08;;;;;;;1999.90;999.90;;;;;;;16.87;81.78;100336.47;10542673;28;20048;-61
2023/10/31 19:56:20;;;;;;;1999.90;999.90;;;;;;;16.93;81.92;100335.91;10524620;28;20044;-62
2023/10/31 20:01:24;;;;;;;1999.90;999.90;;;;;;;16.40;85.24;100331.81;10542108;28;20055;-62
2023/10/31 20:06:26;;;;;;;1999.90;999.90;;;;;;;16.78;83.12;100334.59;10524804;28;20056;-62
2023/10/31 20:11:28;;;;;;;1999.90;999.90;;;;;;;16.60;85.80;100319.47;10542324;28;20050;-62
2023/10/31 20:16:31;;;;;;;1999.90;999.90;;;;;;;16.38;86.97;100325.84;10541568;28;20056;-62
2023/10/31 20:21:34;;;;;;;1999.90;999.90;;;;;;;16.58;84.90;100312.66;10542075;28;20071;-61
2023/10/31 20:26:36;;;;;;;1999.90;999.90;;;;;;;15.91;87.87;100318.50;10541824;28;20048;-61
2023/10/31 20:31:38;;;;;;;1999.90;999.90;;;;;;;16.17;88.63;100323.28;10541576;28;20048;-61
2023/10/31 20:36:43;;;;;;;1999.90;999.90;;;;;;;15.91;92.97;100325.59;10523434;28;20063;-62
2023/10/31 20:41:46;;;;;;;1999.90;999.90;;;;;;;16.14;90.54;100331.50;10523255;28;20048;-62
2023/10/31 20:46:49;;;;;;;1999.90;999.90;;;;;;;16.51;86.74;100321.13;10541555;28;20086;-62
2023/10/31 20:51:52;;;;;;;1999.90;999.90;;;;;;;16.97;83.51;100316.13;10540653;28;20055;-61
2023/10/31 20:56:56;;;;;;;1999.90;999.90;;;;;;;16.95;84.17;100319.91;10522802;28;20090;-62
2023/10/31 21:01:59;;;;;;;1999.90;999.90;;;;;;;16.72;86.71;100323.63;10522557;28;20052;-62
2023/10/31 21:07:01;;;;;;;1999.90;999.90;;;;;;;17.09;80.86;100325.56;10539781;28;20496;-62
2023/10/31 21:12:04;;;;;;;1999.90;999.90;;;;;;;16.69;84.84;100328.34;10540247;28;20057;-62
2023/10/31 21:17:07;;;;;;;1999.90;999.90;;;;;;;16.09;88.16;100346.94;10539529;28;20450;-61
2023/10/31 21:22:09;;;;;;;1999.90;999.90;;;;;;;16.67;86.76;100336.44;10540044;28;20040;-62
2023/10/31 21:27:12;;;;;;;1999.90;999.90;;;;;;;16.44;88.49;100337.66;10540447;28;20076;-62
2023/10/31 21:32:14;;;;;;;1999.90;999.90;;;;;;;16.47;88.16;100324.19;10522546;28;20071;-61
2023/10/31 21:37:17;;;;;;;1999.90;999.90;;;;;;;16.76;88.16;100337.44;10540032;28;20066;-62
2023/10/31 21:42:19;;;;;;;1999.90;999.90;;;;;;;16.35;88.78;100339.31;10547682;28;20044;-61
2023/10/31 21:47:21;;;;;;;1999.90;999.90;;;;;;;16.79;87.24;100325.72;10548133;28;20076;-62
2023/10/31 21:52:24;;;;;;;1999.90;999.90;;;;;;;16.69;86.11;100318.63;10547304;28;20048;-62
2023/10/31 21:57:26;;;;;;;1999.90;999.90;;;;;;;16.96;86.14;100330.31;10547775;28;20058;-62
2023/10/31 22:02:31;;;;;;;1999.90;999.90;;;;;;;16.37;88.35;100329.44;10548043;28;20093;-62